createdAt,value
2018-08-03T00:00:04.559Z,64.70
2018-08-03T00:02:33.569Z,64.70
2018-08-03T00:05:02.238Z,64.90
2018-08-03T00:07:30.606Z,64.80
2018-08-03T00:09:59.055Z,64.80
2018-08-03T00:12:27.454Z,64.70
2018-08-03T00:14:55.960Z,64.60
2018-08-03T00:17:24.525Z,64.60
2018-08-03T00:19:53.105Z,64.40
2018-08-03T00:22:21.628Z,64.30
2018-08-03T00:24:50.622Z,64.40
2018-08-03T00:27:19.103Z,64.50
2018-08-03T00:32:16.042Z,64.70
2018-08-03T00:37:12.562Z,64.90
2018-08-03T00:39:41.878Z,65.60
2018-08-03T00:42:10.167Z,64.90
2018-08-03T00:44:38.916Z,64.90
2018-08-03T00:47:07.354Z,65.10
2018-08-03T00:49:35.910Z,65.20
2018-08-03T00:52:04.470Z,65.30
2018-08-03T00:54:33.369Z,65.10
2018-08-03T00:57:07.579Z,65.00
2018-08-03T00:59:41.852Z,65.80
2018-08-03T01:02:10.658Z,64.60
2018-08-03T01:04:42.921Z,64.50
2018-08-03T01:09:40.433Z,64.40
2018-08-03T01:12:09.526Z,64.10
2018-08-03T01:14:38.224Z,63.80
2018-08-03T01:17:06.844Z,63.60
2018-08-03T01:19:35.472Z,63.40
2018-08-03T01:22:05.740Z,63.50
2018-08-03T01:24:34.189Z,63.10
2018-08-03T01:27:02.665Z,62.80
2018-08-03T01:29:36.101Z,62.60
2018-08-03T01:32:07.223Z,62.40
2018-08-03T01:34:35.885Z,62.00
2018-08-03T01:37:04.878Z,62.10
2018-08-03T01:39:34.801Z,62.00
2018-08-03T01:42:03.290Z,61.80
2018-08-03T01:44:33.801Z,62.70
2018-08-03T01:47:02.621Z,61.70
2018-08-03T01:49:31.397Z,61.60
2018-08-03T01:52:00.227Z,61.70
2018-08-03T01:54:28.843Z,61.60
2018-08-03T01:56:57.438Z,61.80
2018-08-03T01:59:29.769Z,61.70
2018-08-03T02:01:58.809Z,61.50
2018-08-03T02:04:28.063Z,61.20
2018-08-03T02:06:56.671Z,61.00
2018-08-03T02:09:25.042Z,61.00
2018-08-03T02:11:53.347Z,60.90
2018-08-03T02:14:21.730Z,60.70
2018-08-03T02:16:50.135Z,60.50
2018-08-03T02:19:18.770Z,60.60
2018-08-03T02:21:47.153Z,60.90
2018-08-03T02:24:15.657Z,60.90
2018-08-03T02:29:12.796Z,60.80
2018-08-03T02:31:41.381Z,60.90
2018-08-03T02:34:10.070Z,60.70
2018-08-03T02:36:38.891Z,60.90
2018-08-03T02:41:38.718Z,60.80
2018-08-03T02:46:36.802Z,60.70
2018-08-03T02:49:05.274Z,60.70
2018-08-03T02:51:33.843Z,61.60
2018-08-03T02:54:02.218Z,61.10
2018-08-03T02:56:30.535Z,61.20
2018-08-03T02:59:05.524Z,61.10
2018-08-03T03:01:34.013Z,60.60
2018-08-03T03:04:02.504Z,60.40
2018-08-03T03:06:31.217Z,60.40
2018-08-03T03:09:00.111Z,60.40
2018-08-03T03:11:28.640Z,60.10
2018-08-03T03:13:57.027Z,61.10
2018-08-03T03:16:25.276Z,60.30
2018-08-03T03:18:53.937Z,60.30
2018-08-03T03:21:22.468Z,60.30
2018-08-03T03:23:50.766Z,60.20
2018-08-03T03:26:19.884Z,60.20
2018-08-03T03:28:48.547Z,60.20
2018-08-03T03:31:16.796Z,60.20
2018-08-03T03:33:45.061Z,60.40
2018-08-03T03:36:13.343Z,60.40
2018-08-03T03:38:41.713Z,60.20
2018-08-03T03:41:10.035Z,60.40
2018-08-03T03:43:38.314Z,60.10
2018-08-03T03:46:07.513Z,60.10
2018-08-03T03:48:35.851Z,60.10
2018-08-03T03:51:04.294Z,59.90
2018-08-03T03:53:32.641Z,59.80
2018-08-03T03:56:01.573Z,59.80
2018-08-03T04:00:58.267Z,59.70
2018-08-03T04:03:26.624Z,59.70
2018-08-03T04:05:55.047Z,59.50
2018-08-03T04:08:23.461Z,59.30
2018-08-03T04:10:51.780Z,59.30
2018-08-03T04:13:20.084Z,59.20
2018-08-03T04:15:49.097Z,59.10
2018-08-03T04:18:20.294Z,59.00
2018-08-03T04:20:49.561Z,58.90
2018-08-03T04:23:18.844Z,58.80
2018-08-03T04:25:47.384Z,58.80
2018-08-03T04:28:16.164Z,58.50
2018-08-03T04:30:44.368Z,58.50
2018-08-03T04:33:13.450Z,58.40
2018-08-03T04:35:42.245Z,58.20
2018-08-03T04:38:10.548Z,58.10
2018-08-03T04:40:38.714Z,58.30
2018-08-03T04:43:07.020Z,57.90
2018-08-03T04:45:35.352Z,57.70
2018-08-03T04:48:03.498Z,57.60
2018-08-03T04:50:31.577Z,57.50
2018-08-03T04:52:59.796Z,57.20
2018-08-03T04:55:28.102Z,57.50
2018-08-03T04:57:56.345Z,57.00
2018-08-03T05:00:24.600Z,57.00
2018-08-03T05:02:52.718Z,56.90
2018-08-03T05:05:20.890Z,56.60
2018-08-03T05:07:49.019Z,56.40
2018-08-03T05:10:17.174Z,56.30
2018-08-03T05:12:45.393Z,56.10
2018-08-03T05:15:13.555Z,55.90
2018-08-03T05:17:41.926Z,55.90
2018-08-03T05:20:10.126Z,55.70
2018-08-03T05:22:38.378Z,55.20
2018-08-03T05:25:06.750Z,55.30
2018-08-03T05:27:34.864Z,54.90
2018-08-03T05:30:04.057Z,54.70
2018-08-03T05:32:32.215Z,54.40
2018-08-03T05:35:00.399Z,53.80
2018-08-03T05:37:29.268Z,53.10
2018-08-03T05:39:57.380Z,52.10
2018-08-03T05:42:26.010Z,51.30
2018-08-03T05:44:54.642Z,50.70
2018-08-03T05:47:22.831Z,50.20
2018-08-03T05:49:51.063Z,49.70
2018-08-03T05:52:19.355Z,48.90
2018-08-03T05:54:47.631Z,48.00
2018-08-03T05:57:16.381Z,47.10
2018-08-03T06:02:12.727Z,46.40
2018-08-03T06:07:09.148Z,45.60
2018-08-03T06:09:37.514Z,44.90
2018-08-03T06:12:05.769Z,44.10
2018-08-03T06:14:33.950Z,43.70
2018-08-03T06:17:02.183Z,43.50
2018-08-03T06:24:26.841Z,42.10
2018-08-03T06:26:55.165Z,42.40
2018-08-03T06:29:23.366Z,42.30
2018-08-03T06:31:51.692Z,42.20
2018-08-03T06:34:19.861Z,42.30
2018-08-03T06:36:48.201Z,42.20
2018-08-03T06:39:16.455Z,41.50
2018-08-03T06:41:45.358Z,40.40
2018-08-03T06:44:13.804Z,39.70
2018-08-03T06:46:42.096Z,39.00
2018-08-03T06:49:10.373Z,38.90
2018-08-03T06:51:38.608Z,38.10
2018-08-03T06:54:06.904Z,37.30
2018-08-03T06:56:35.096Z,37.40
2018-08-03T06:59:03.349Z,37.90
2018-08-03T07:01:31.587Z,36.90
2018-08-03T07:06:28.055Z,36.60
2018-08-03T07:08:56.281Z,36.70
2018-08-03T07:11:24.457Z,36.00
2018-08-03T07:13:53.540Z,35.30
2018-08-03T07:16:22.432Z,35.20
2018-08-03T07:18:54.672Z,35.00
2018-08-03T07:21:25.570Z,34.30
2018-08-03T07:23:54.115Z,33.10
2018-08-03T07:26:22.360Z,32.00
2018-08-03T07:28:51.117Z,31.60
2018-08-03T07:31:19.283Z,30.80
2018-08-03T07:33:48.045Z,29.80
2018-08-03T07:36:16.383Z,30.90
2018-08-03T07:38:45.367Z,33.00
2018-08-03T07:43:41.818Z,34.40
2018-08-03T07:46:10.196Z,34.60
2018-08-03T07:48:38.479Z,33.10
2018-08-03T07:53:34.901Z,32.10
2018-08-03T07:56:03.149Z,31.70
2018-08-03T07:58:31.369Z,31.40
2018-08-03T08:00:59.559Z,31.00
2018-08-03T08:03:27.883Z,30.00
2018-08-03T08:05:56.131Z,30.30
2018-08-03T08:08:24.381Z,29.30
2018-08-03T08:10:52.615Z,28.70
2018-08-03T08:13:21.053Z,28.40
2018-08-03T08:18:21.364Z,28.00
2018-08-03T08:20:49.612Z,27.00
2018-08-03T08:23:17.975Z,28.30
2018-08-03T08:25:46.163Z,26.90
2018-08-03T08:28:14.494Z,26.60
2018-08-03T08:30:42.832Z,26.20
2018-08-03T08:33:11.230Z,26.80
2018-08-03T08:35:39.591Z,27.20
2018-08-03T08:38:07.848Z,26.90
2018-08-03T08:40:36.320Z,26.60
2018-08-03T08:43:04.666Z,26.80
2018-08-03T08:45:33.004Z,25.70
2018-08-03T08:48:01.299Z,24.70
2018-08-03T08:50:29.587Z,23.70
2018-08-03T08:52:58.346Z,23.30
2018-08-03T08:55:27.574Z,24.40
2018-08-03T08:57:56.035Z,25.00
2018-08-03T09:00:24.507Z,25.30
2018-08-03T09:02:53.025Z,24.90
2018-08-03T09:05:21.991Z,24.00
2018-08-03T09:07:50.735Z,22.90
2018-08-03T09:10:19.023Z,23.30
2018-08-03T09:12:47.499Z,21.90
2018-08-03T09:17:43.892Z,20.50
2018-08-03T09:20:12.126Z,20.20
2018-08-03T09:22:40.267Z,19.60
2018-08-03T09:25:08.582Z,19.30
2018-08-03T09:27:36.776Z,19.30
2018-08-03T09:30:07.756Z,20.10
2018-08-03T09:32:35.976Z,20.00
2018-08-03T09:35:04.382Z,19.40
2018-08-03T09:37:32.894Z,19.40
2018-08-03T09:40:01.219Z,20.20
2018-08-03T09:42:29.786Z,21.30
2018-08-03T09:44:58.062Z,21.50
2018-08-03T09:47:26.388Z,23.00
2018-08-03T09:49:54.770Z,22.20
2018-08-03T09:52:23.332Z,22.10
2018-08-03T09:54:51.616Z,21.20
2018-08-03T09:57:19.862Z,22.10
2018-08-03T09:59:48.164Z,22.40
2018-08-03T10:02:16.353Z,23.70
2018-08-03T10:04:44.608Z,24.20
2018-08-03T10:07:12.854Z,23.80
2018-08-03T10:09:41.082Z,23.70
2018-08-03T10:12:09.482Z,23.20
2018-08-03T10:14:37.786Z,21.60
2018-08-03T10:17:06.065Z,20.40
2018-08-03T10:19:35.278Z,20.00
2018-08-03T10:24:31.948Z,17.70
2018-08-03T10:27:00.337Z,17.10
2018-08-03T10:29:28.626Z,16.70
2018-08-03T10:31:56.934Z,16.00
2018-08-03T10:34:25.164Z,16.60
2018-08-03T10:41:50.792Z,17.60
2018-08-03T10:44:19.024Z,19.00
2018-08-03T10:46:47.318Z,19.50
2018-08-03T10:49:15.880Z,20.00
2018-08-03T10:51:44.223Z,19.50
2018-08-03T10:54:15.267Z,18.90
2018-08-03T10:56:43.473Z,18.20
2018-08-03T10:59:11.598Z,17.30
2018-08-03T11:04:07.959Z,16.80
2018-08-03T11:06:36.206Z,18.00
2018-08-03T11:09:06.799Z,20.20
2018-08-03T11:11:35.075Z,20.90
2018-08-03T11:14:03.436Z,21.70
2018-08-03T11:16:31.651Z,21.70
2018-08-03T11:19:00.003Z,20.50
2018-08-03T11:21:30.607Z,19.90
2018-08-03T11:23:58.909Z,19.90
2018-08-03T11:26:27.169Z,19.40
2018-08-03T11:28:55.361Z,18.30
2018-08-03T11:31:23.640Z,17.70
2018-08-03T11:33:51.929Z,17.20
2018-08-03T11:36:20.080Z,18.10
2018-08-03T11:38:48.358Z,18.70
2018-08-03T11:41:16.640Z,18.90
2018-08-03T11:43:44.909Z,18.80
2018-08-03T11:46:13.248Z,17.20
2018-08-03T11:48:41.552Z,16.20
2018-08-03T11:51:09.929Z,16.20
2018-08-03T11:53:38.346Z,17.90
2018-08-03T11:56:07.012Z,18.10
2018-08-03T11:58:35.434Z,17.80
2018-08-03T12:01:03.686Z,17.30
2018-08-03T12:03:31.941Z,16.90
2018-08-03T12:06:00.258Z,16.60
2018-08-03T12:08:28.478Z,17.10
2018-08-03T12:13:24.816Z,18.90
2018-08-03T12:15:52.991Z,20.00
2018-08-03T12:18:21.278Z,21.30
2018-08-03T12:20:49.575Z,21.50
2018-08-03T12:23:17.799Z,22.20
2018-08-03T12:25:46.050Z,21.30
2018-08-03T12:28:14.194Z,20.70
2018-08-03T12:31:46.550Z,18.60
2018-08-03T12:34:15.067Z,18.00
2018-08-03T12:36:43.326Z,16.50
2018-08-03T12:39:11.664Z,16.20
2018-08-03T12:41:39.933Z,16.70
2018-08-03T12:44:08.200Z,16.60
2018-08-03T12:46:36.529Z,17.00
2018-08-03T12:49:04.811Z,17.00
2018-08-03T12:51:33.026Z,16.30
2018-08-03T12:54:01.297Z,16.50
2018-08-03T12:56:29.556Z,16.70
2018-08-03T12:58:57.921Z,16.40
2018-08-03T13:01:26.129Z,15.60
2018-08-03T13:03:54.407Z,15.30
2018-08-03T13:06:22.699Z,15.90
2018-08-03T13:08:50.995Z,16.50
2018-08-03T13:11:19.283Z,15.80
2018-08-03T13:13:47.594Z,15.50
2018-08-03T13:18:44.092Z,15.30
2018-08-03T13:21:34.291Z,15.60
2018-08-03T13:24:03.113Z,15.40
2018-08-03T13:26:31.605Z,15.00
2018-08-03T13:29:00.026Z,14.70
2018-08-03T13:31:29.175Z,15.60
2018-08-03T13:33:57.731Z,15.80
2018-08-03T13:36:27.287Z,15.10
2018-08-03T13:38:55.580Z,15.60
2018-08-03T13:41:24.046Z,15.40
2018-08-03T13:43:52.367Z,15.60
2018-08-03T13:46:20.948Z,16.00
2018-08-03T13:48:49.842Z,17.50
2018-08-03T13:51:18.741Z,17.10
2018-08-03T13:53:47.764Z,17.60
2018-08-03T13:56:16.987Z,17.70
2018-08-03T13:58:45.973Z,17.60
2018-08-03T14:01:31.207Z,17.30
2018-08-03T14:03:59.487Z,16.70
2018-08-03T14:06:27.960Z,16.40
2018-08-03T14:08:56.189Z,16.70
2018-08-03T14:13:52.728Z,17.70
2018-08-03T14:16:20.924Z,18.70
2018-08-03T14:18:49.186Z,20.10
2018-08-03T14:21:17.455Z,21.70
2018-08-03T14:23:45.672Z,22.70
2018-08-03T14:26:13.908Z,23.50
2018-08-03T14:28:42.253Z,24.80
2018-08-03T14:31:10.922Z,25.40
2018-08-03T14:33:39.216Z,25.70
2018-08-03T14:36:07.696Z,26.20
2018-08-03T14:38:36.068Z,26.50
2018-08-03T14:41:04.830Z,26.70
2018-08-03T14:43:33.242Z,26.70
2018-08-03T14:46:01.556Z,26.80
2018-08-03T14:48:29.810Z,26.80
2018-08-03T14:50:58.064Z,26.40
2018-08-03T14:53:26.456Z,26.50
2018-08-03T14:55:54.726Z,26.80
2018-08-03T14:58:23.006Z,27.00
2018-08-03T15:00:51.334Z,27.00
2018-08-03T15:03:19.596Z,26.80
2018-08-03T15:05:47.872Z,27.20
2018-08-03T15:08:16.077Z,27.30
2018-08-03T15:10:44.642Z,27.20
2018-08-03T15:13:13.140Z,27.10
2018-08-03T15:15:42.204Z,27.10
2018-08-03T15:18:10.535Z,27.30
2018-08-03T15:20:38.976Z,27.40
2018-08-03T15:23:07.820Z,27.70
2018-08-03T15:25:36.124Z,27.90
2018-08-03T15:28:04.700Z,28.10
2018-08-03T15:30:33.089Z,28.40
2018-08-03T15:33:01.497Z,28.50
2018-08-03T15:35:29.788Z,28.80
2018-08-03T15:40:27.612Z,28.50
2018-08-03T15:42:55.908Z,28.50
2018-08-03T15:45:24.199Z,28.70
2018-08-03T15:47:52.483Z,28.50
2018-08-03T15:50:20.809Z,28.30
2018-08-03T15:52:49.368Z,28.40
2018-08-03T15:55:18.633Z,28.40
2018-08-03T15:57:47.128Z,28.30
2018-08-03T16:00:15.509Z,28.30
2018-08-03T16:02:43.933Z,28.40
2018-08-03T16:05:13.913Z,28.30
2018-08-03T16:07:42.257Z,28.50
2018-08-03T16:10:10.838Z,28.50
2018-08-03T16:12:39.428Z,28.40
2018-08-03T16:15:07.789Z,28.70
2018-08-03T16:17:36.421Z,28.80
2018-08-03T16:20:05.287Z,29.00
2018-08-03T16:22:33.647Z,28.60
2018-08-03T16:25:02.036Z,28.70
2018-08-03T16:27:30.601Z,28.40
2018-08-03T16:29:58.965Z,28.50
2018-08-03T16:32:27.111Z,28.20
2018-08-03T16:37:23.859Z,28.10
2018-08-03T16:39:52.203Z,28.40
2018-08-03T16:42:20.560Z,28.60
2018-08-03T16:44:49.722Z,28.80
2018-08-03T16:47:18.124Z,28.90
2018-08-03T16:49:46.595Z,28.90
2018-08-03T16:52:15.084Z,28.80
2018-08-03T16:54:44.501Z,28.60
2018-08-03T16:57:12.787Z,28.50
2018-08-03T16:59:44.811Z,28.60
2018-08-03T17:02:13.212Z,28.90
2018-08-03T17:07:09.679Z,29.60
2018-08-03T17:09:39.048Z,29.70
2018-08-03T17:12:07.452Z,29.70
2018-08-03T17:14:35.855Z,29.70
2018-08-03T17:17:04.293Z,30.00
2018-08-03T17:19:32.560Z,30.00
2018-08-03T17:22:00.852Z,30.10
2018-08-03T17:24:29.168Z,30.50
2018-08-03T17:26:57.718Z,30.60
2018-08-03T17:29:32.579Z,31.10
2018-08-03T17:32:00.921Z,31.10
2018-08-03T17:34:29.119Z,31.20
2018-08-03T17:36:57.597Z,31.70
2018-08-03T17:39:25.958Z,31.80
2018-08-03T17:41:54.352Z,31.90
2018-08-03T17:44:22.616Z,32.50
2018-08-03T17:46:50.798Z,31.90
2018-08-03T17:51:47.248Z,32.30
2018-08-03T17:54:16.910Z,32.50
2018-08-03T17:56:46.562Z,32.80
2018-08-03T17:59:15.036Z,32.70
2018-08-03T18:04:13.190Z,32.70
2018-08-03T18:06:41.604Z,32.80
2018-08-03T18:09:09.972Z,32.80
2018-08-03T18:11:38.318Z,33.10
2018-08-03T18:14:06.582Z,33.20
2018-08-03T18:16:34.978Z,33.40
2018-08-03T18:19:03.614Z,33.70
2018-08-03T18:21:31.886Z,34.10
2018-08-03T18:24:15.214Z,34.00
2018-08-03T18:26:43.453Z,34.20
2018-08-03T18:29:11.789Z,34.30
2018-08-03T18:31:40.111Z,34.70
2018-08-03T18:34:08.672Z,35.20
2018-08-03T18:36:37.161Z,35.40
2018-08-03T18:39:09.072Z,35.50
2018-08-03T18:41:37.587Z,35.90
2018-08-03T18:44:05.927Z,36.10
2018-08-03T18:46:34.205Z,36.40
2018-08-03T18:49:02.473Z,36.60
2018-08-03T18:51:31.479Z,36.80
2018-08-03T18:54:00.050Z,37.10
2018-08-03T18:56:28.397Z,37.40
2018-08-03T18:58:56.649Z,37.70
2018-08-03T19:03:53.943Z,38.00
2018-08-03T19:06:23.161Z,38.20
2018-08-03T19:08:51.590Z,38.60
2018-08-03T19:11:20.379Z,38.80
2018-08-03T19:13:48.659Z,39.00
2018-08-03T19:16:17.038Z,39.30
2018-08-03T19:18:45.410Z,39.50
2018-08-03T19:21:13.625Z,39.50
2018-08-03T19:23:41.976Z,39.80
2018-08-03T19:26:10.325Z,39.90
2018-08-03T19:28:38.566Z,40.20
2018-08-03T19:31:07.310Z,40.40
2018-08-03T19:36:11.066Z,40.70
2018-08-03T19:38:39.492Z,40.80
2018-08-03T19:41:12.312Z,41.00
2018-08-03T19:46:09.442Z,41.30
2018-08-03T19:48:37.640Z,41.10
2018-08-03T19:51:06.020Z,41.30
2018-08-03T19:53:34.880Z,41.30
2018-08-03T19:56:03.159Z,41.10
2018-08-03T19:58:31.416Z,41.20
2018-08-03T20:00:59.624Z,41.40
2018-08-03T20:03:28.026Z,42.40
2018-08-03T20:05:59.052Z,42.40
2018-08-03T20:08:28.413Z,42.40
2018-08-03T20:10:58.978Z,42.50
2018-08-03T20:13:27.611Z,42.40
2018-08-03T20:15:55.996Z,42.40
2018-08-03T20:18:24.355Z,42.10
2018-08-03T20:20:53.078Z,42.10
2018-08-03T20:23:21.368Z,42.20
2018-08-03T20:25:50.320Z,42.20
2018-08-03T20:28:18.786Z,42.30
2018-08-03T20:30:47.051Z,42.40
2018-08-03T20:33:15.386Z,42.50
2018-08-03T20:35:43.905Z,42.60
2018-08-03T20:38:12.192Z,42.70
2018-08-03T20:40:41.121Z,42.90
2018-08-03T20:43:09.643Z,42.90
2018-08-03T20:45:40.403Z,42.80
2018-08-03T20:50:45.093Z,42.60
2018-08-03T20:53:13.567Z,42.50
2018-08-03T20:55:42.805Z,42.60
2018-08-03T20:58:11.423Z,42.60
2018-08-03T21:03:13.977Z,42.60
2018-08-03T21:05:51.407Z,42.50
2018-08-03T21:08:22.171Z,42.70
2018-08-03T21:10:56.066Z,42.50
2018-08-03T21:13:24.734Z,42.70
2018-08-03T21:15:53.191Z,42.70
2018-08-03T21:18:21.691Z,42.80
2018-08-03T21:20:50.075Z,42.50
2018-08-03T21:23:19.303Z,42.50
2018-08-03T21:25:47.754Z,42.70
2018-08-03T21:28:16.202Z,43.00
2018-08-03T21:30:44.866Z,43.00
2018-08-03T21:33:13.110Z,43.30
2018-08-03T21:35:41.891Z,43.30
2018-08-03T21:38:10.382Z,43.50
2018-08-03T21:40:39.193Z,43.80
2018-08-03T21:43:08.109Z,43.70
2018-08-03T21:45:36.378Z,43.80
2018-08-03T21:48:04.886Z,43.90
2018-08-03T21:50:33.236Z,43.80
2018-08-03T21:53:01.612Z,43.80
2018-08-03T21:55:30.023Z,44.10
2018-08-03T21:57:58.448Z,44.00
2018-08-03T22:00:26.944Z,44.00
2018-08-03T22:02:55.314Z,44.00
2018-08-03T22:05:23.573Z,44.10
2018-08-03T22:07:51.859Z,44.50
2018-08-03T22:10:20.251Z,44.10
2018-08-03T22:12:48.562Z,44.00
2018-08-03T22:15:16.892Z,44.00
2018-08-03T22:17:45.142Z,43.90
2018-08-03T22:20:13.424Z,44.50
2018-08-03T22:22:41.731Z,44.10
2018-08-03T22:25:10.171Z,44.30
2018-08-03T22:27:38.406Z,44.10
2018-08-03T22:30:06.722Z,43.70
2018-08-03T22:32:35.897Z,43.70
2018-08-03T22:35:04.154Z,43.60
2018-08-03T22:40:01.426Z,43.80
2018-08-03T22:42:29.810Z,44.00
2018-08-03T22:44:58.139Z,44.00
2018-08-03T22:47:26.359Z,44.00
2018-08-03T22:52:22.759Z,44.40
2018-08-03T22:54:51.042Z,44.30
2018-08-03T22:57:19.358Z,44.40
2018-08-03T22:59:47.568Z,44.80
2018-08-03T23:02:15.840Z,44.90
2018-08-03T23:04:44.084Z,44.50
2018-08-03T23:07:12.410Z,44.50
2018-08-03T23:09:40.706Z,44.60
2018-08-03T23:12:08.901Z,44.60
2018-08-03T23:14:37.206Z,44.60
2018-08-03T23:17:05.455Z,44.60
2018-08-03T23:19:33.603Z,44.70
2018-08-03T23:22:01.727Z,44.70
2018-08-03T23:24:29.979Z,45.00
2018-08-03T23:26:58.317Z,45.00
2018-08-03T23:29:26.865Z,45.30
2018-08-03T23:31:55.443Z,45.30
2018-08-03T23:34:24.730Z,45.20
2018-08-03T23:36:52.982Z,45.20
2018-08-03T23:39:21.235Z,45.20
2018-08-03T23:41:49.441Z,45.30
2018-08-03T23:44:17.766Z,45.30
2018-08-03T23:49:14.151Z,45.60
2018-08-03T23:51:42.331Z,45.60
2018-08-03T23:54:10.515Z,45.70
2018-08-03T23:56:38.843Z,45.80
2018-08-03T23:59:07.122Z,45.70
